Time;durP1;ratioP1;P1;durP2;ratioP2;P2;SDS_P1;SDS_P2;PMS_P1;PMS_P2;Temp;Humidity;BMP_temperature;BMP_pressure;BME280_temperature;BME280_humidity;BME280_pressure;Samples;Min_cycle;Max_cycle;Signal;HPM_P1;HPM_P2
2023/04/01 00:00:58;;;;;;;9.80;3.30;;;13.60;69.90;;;;;;4979323;28;20031;-87
2023/04/01 00:03:26;;;;;;;13.13;3.20;;;13.50;69.80;;;;;;4969440;28;20023;-87
2023/04/01 00:05:53;;;;;;;8.75;3.60;;;13.50;69.80;;;;;;4987355;28;20676;-89
2023/04/01 00:08:21;;;;;;;9.77;3.22;;;13.50;69.90;;;;;;4968725;28;20035;-89
2023/04/01 00:10:47;;;;;;;8.15;3.28;;;13.50;69.90;;;;;;4975552;28;20899;-88
2023/04/01 00:13:13;;;;;;;11.77;4.75;;;13.50;69.90;;;;;;4979450;28;20045;-88
2023/04/01 00:15:39;;;;;;;10.32;3.30;;;13.50;70.00;;;;;;4973486;28;20170;-88
2023/04/01 00:18:06;;;;;;;11.05;4.00;;;13.50;70.00;;;;;;4972610;28;20561;-88
2023/04/01 00:20:32;;;;;;;14.98;4.30;;;13.50;70.10;;;;;;4982653;28;20042;-88
2023/04/01 00:22:58;;;;;;;6.93;2.92;;;13.50;70.10;;;;;;4966522;28;20050;-86
2023/04/01 00:25:24;;;;;;;11.73;2.83;;;13.50;70.10;;;;;;4971271;28;20065;-90
2023/04/01 00:27:50;;;;;;;9.05;3.45;;;13.50;70.10;;;;;;4973081;28;20036;-90
2023/04/01 00:30:16;;;;;;;9.30;4.03;;;13.50;70.20;;;;;;4971389;28;20577;-89
2023/04/01 00:32:43;;;;;;;8.27;3.47;;;13.40;70.00;;;;;;4963297;28;20034;-88
2023/04/01 00:35:09;;;;;;;9.75;3.00;;;13.40;70.00;;;;;;4970787;28;20046;-87
2023/04/01 00:37:36;;;;;;;8.77;2.78;;;13.40;70.10;;;;;;4985463;28;20093;-87
2023/04/01 00:40:05;;;;;;;8.48;4.03;;;13.40;70.00;;;;;;4984788;28;20030;-88
2023/04/01 00:42:31;;;;;;;9.75;2.90;;;13.40;70.00;;;;;;4970051;28;20101;-88
2023/04/01 00:44:58;;;;;;;9.13;2.50;;;13.40;70.10;;;;;;4969384;28;20513;-89
2023/04/01 00:47:31;;;;;;;8.63;2.72;;;13.40;70.10;;;;;;4969041;28;20054;-89
2023/04/01 00:49:57;;;;;;;8.70;3.08;;;13.40;70.10;;;;;;4987935;28;20062;-86
2023/04/01 00:52:25;;;;;;;12.45;4.20;;;13.40;70.20;;;;;;4969107;28;20061;-88
2023/04/01 00:54:58;;;;;;;9.18;3.05;;;13.40;70.20;;;;;;4974485;28;20491;-89
2023/04/01 00:57:30;;;;;;;7.38;2.38;;;13.40;70.20;;;;;;4985956;28;20031;-89
2023/04/01 00:59:57;;;;;;;8.52;4.25;;;13.40;70.30;;;;;;4972559;28;20045;-91
2023/04/01 01:02:24;;;;;;;7.47;3.28;;;13.30;70.10;;;;;;4977502;28;20473;-90
2023/04/01 01:04:50;;;;;;;8.25;3.25;;;13.30;70.70;;;;;;4973142;28;20039;-92
2023/04/01 01:07:36;;;;;;;8.45;4.15;;;13.30;70.20;;;;;;4985169;28;20059;-93
2023/04/01 01:10:26;;;;;;;7.68;3.53;;;13.30;70.30;;;;;;4969211;28;20043;-90
2023/04/01 01:13:24;;;;;;;10.77;3.25;;;13.30;70.30;;;;;;4968565;28;20085;-91
2023/04/01 01:16:01;;;;;;;7.57;3.15;;;13.30;70.30;;;;;;4951905;28;20437;-91
2023/04/01 01:19:05;;;;;;;7.22;2.90;;;13.30;70.30;;;;;;4972151;28;20039;-91
2023/04/01 01:21:31;;;;;;;11.75;3.17;;;13.30;70.30;;;;;;4930956;28;20051;-92
2023/04/01 01:24:20;;;;;;;10.05;3.50;;;13.20;70.10;;;;;;4970725;28;20079;-90
2023/04/01 01:26:50;;;;;;;7.10;3.05;;;13.20;70.20;;;;;;4967710;28;20027;-89
2023/04/01 01:29:47;;;;;;;9.57;3.83;;;13.20;70.20;;;;;;4972830;28;20510;-91
2023/04/01 01:32:34;;;;;;;9.02;3.50;;;13.20;70.20;;;;;;4985104;28;20084;-90
2023/04/01 01:35:35;;;;;;;9.75;4.38;;;13.20;70.20;;;;;;4985222;28;20043;-91
2023/04/01 01:38:16;;;;;;;7.25;3.08;;;13.20;70.20;;;;;;4967920;28;20077;-89
2023/04/01 01:40:54;;;;;;;10.55;3.13;;;13.20;70.20;;;;;;4974620;28;20070;-89
2023/04/01 01:43:37;;;;;;;8.07;3.15;;;13.20;70.20;;;;;;4975011;28;20037;-89
2023/04/01 01:46:10;;;;;;;6.85;2.97;;;13.20;70.20;;;;;;4964141;28;20062;-89
2023/04/01 01:48:37;;;;;;;10.15;3.85;;;13.20;70.30;;;;;;4985999;28;20125;-89
2023/04/01 01:51:07;;;;;;;6.78;3.50;;;13.20;70.20;;;;;;4973756;28;20027;-88
2023/04/01 01:53:33;;;;;;;8.35;2.97;;;13.20;70.30;;;;;;4967760;28;20425;-89
2023/04/01 01:56:00;;;;;;;7.60;3.35;;;13.20;70.30;;;;;;4970038;28;20052;-89
2023/04/01 01:58:32;;;;;;;7.63;3.58;;;13.20;70.30;;;;;;4986842;28;20053;-91
2023/04/01 02:01:05;;;;;;;6.28;2.95;;;13.10;70.20;;;;;;4986827;28;20054;-88
2023/04/01 02:03:35;;;;;;;10.40;4.05;;;13.10;70.20;;;;;;4984192;28;20034;-92
2023/04/01 02:06:05;;;;;;;11.13;4.18;;;13.10;70.30;;;;;;4983568;28;20097;-91
2023/04/01 02:08:43;;;;;;;8.77;3.95;;;13.10;70.30;;;;;;4970581;28;20027;-88
2023/04/01 02:11:12;;;;;;;12.90;4.43;;;13.10;70.30;;;;;;4981987;28;20029;-87
2023/04/01 02:13:50;;;;;;;5.97;3.35;;;13.10;70.30;;;;;;4985419;28;20055;-88
2023/04/01 02:16:22;;;;;;;7.50;3.47;;;13.10;70.40;;;;;;4969437;28;20050;-87
2023/04/01 02:18:51;;;;;;;8.07;3.58;;;13.10;70.40;;;;;;4979910;28;20156;-90
2023/04/01 02:21:20;;;;;;;6.10;3.55;;;13.10;70.40;;;;;;4985257;28;20401;-89
2023/04/01 02:23:47;;;;;;;7.10;3.10;;;13.10;70.50;;;;;;4969342;28;20107;-90
2023/04/01 02:26:14;;;;;;;6.53;3.58;;;13.00;70.30;;;;;;4971658;28;20034;-89
2023/04/01 02:28:42;;;;;;;7.55;3.30;;;13.10;70.50;;;;;;4967196;28;20043;-89
2023/04/01 02:31:10;;;;;;;8.00;3.70;;;13.00;70.30;;;;;;4990621;28;20114;-89
2023/04/01 02:33:39;;;;;;;9.43;3.83;;;13.00;70.80;;;;;;4971187;28;20038;-89
2023/04/01 02:36:05;;;;;;;8.70;3.20;;;13.10;70.50;;;;;;4984665;28;20386;-89
2023/04/01 02:38:31;;;;;;;10.13;3.65;;;13.00;70.30;;;;;;4970406;28;20039;-89
2023/04/01 02:41:02;;;;;;;8.93;3.67;;;13.00;70.30;;;;;;4986552;28;20070;-91
2023/04/01 02:43:28;;;;;;;7.93;3.05;;;13.00;70.30;;;;;;4984990;28;20042;-88
2023/04/01 02:45:54;;;;;;;8.00;3.47;;;13.00;70.30;;;;;;4963603;28;20049;-88
2023/04/01 02:48:21;;;;;;;5.88;3.20;;;13.00;70.40;;;;;;4970185;28;20106;-88
2023/04/01 02:50:47;;;;;;;7.70;3.40;;;13.00;70.40;;;;;;4966712;28;20648;-88
2023/04/01 02:53:13;;;;;;;4.80;3.17;;;13.00;70.40;;;;;;4965586;28;20688;-87
2023/04/01 02:55:39;;;;;;;11.65;4.57;;;13.00;70.40;;;;;;4968784;28;20042;-88
2023/04/01 02:58:05;;;;;;;9.73;4.03;;;12.90;70.20;;;;;;4963783;28;20031;-88
2023/04/01 03:00:31;;;;;;;7.97;3.00;;;12.90;70.30;;;;;;4985505;28;20118;-87
2023/04/01 03:02:57;;;;;;;7.65;3.72;;;12.90;70.30;;;;;;4985608;28;20103;-88
2023/04/01 03:05:24;;;;;;;6.45;3.00;;;12.90;70.40;;;;;;4985698;28;20034;-88
2023/04/01 03:07:50;;;;;;;7.45;3.30;;;12.90;70.40;;;;;;4985997;28;20422;-90
2023/04/01 03:10:17;;;;;;;7.53;2.85;;;12.90;70.40;;;;;;4964563;28;20049;-89
2023/04/01 03:12:43;;;;;;;6.80;3.40;;;12.90;70.40;;;;;;4984874;28;20239;-87
2023/04/01 03:15:11;;;;;;;4.65;2.80;;;12.80;70.30;;;;;;4969588;28;20286;-88
2023/04/01 03:17:38;;;;;;;8.85;3.53;;;12.80;70.30;;;;;;4989406;28;20105;-88
2023/04/01 03:20:05;;;;;;;7.43;3.65;;;12.80;70.30;;;;;;4975870;28;20127;-85
2023/04/01 03:22:31;;;;;;;6.03;3.85;;;12.80;70.30;;;;;;4984653;28;20189;-87
2023/04/01 03:25:02;;;;;;;6.95;3.88;;;12.80;70.30;;;;;;4977776;28;20074;-88
2023/04/01 03:27:29;;;;;;;6.63;3.15;;;12.80;70.30;;;;;;4993420;28;20524;-89
2023/04/01 03:29:55;;;;;;;6.00;3.28;;;12.80;70.40;;;;;;4989664;28;20096;-86
2023/04/01 03:32:21;;;;;;;6.30;3.55;;;12.80;70.40;;;;;;4965569;28;20065;-88
2023/04/01 03:34:47;;;;;;;9.05;3.42;;;12.80;70.40;;;;;;4969663;28;20469;-89
2023/04/01 03:37:31;;;;;;;6.60;3.38;;;12.80;70.40;;;;;;4793566;26;20049;-89
2023/04/01 03:39:59;;;;;;;7.72;2.95;;;12.80;70.40;;;;;;5035294;28;20105;-89
2023/04/01 03:42:25;;;;;;;6.30;3.65;;;12.80;70.40;;;;;;5031448;28;20037;-90
2023/04/01 03:44:51;;;;;;;8.43;2.80;;;12.80;70.40;;;;;;5050774;28;20032;-89
2023/04/01 03:47:18;;;;;;;7.05;3.15;;;12.70;70.30;;;;;;5031052;28;20416;-89
2023/04/01 03:49:44;;;;;;;10.95;4.57;;;12.70;70.30;;;;;;5058148;28;20064;-88
2023/04/01 03:52:11;;;;;;;8.55;3.63;;;12.70;70.30;;;;;;5062538;28;20074;-88
2023/04/01 03:54:37;;;;;;;7.03;4.10;;;12.70;70.30;;;;;;5059626;28;20403;-86
2023/04/01 03:57:09;;;;;;;7.55;3.63;;;12.70;70.30;;;;;;5048494;28;20029;-88
2023/04/01 03:59:36;;;;;;;8.20;4.07;;;12.70;70.30;;;;;;5046124;28;20037;-83
2023/04/01 04:02:03;;;;;;;6.65;2.90;;;12.60;70.20;;;;;;5047914;28;20021;-83
2023/04/01 04:04:29;;;;;;;7.20;3.92;;;12.70;70.40;;;;;;5051753;28;20048;-87
2023/04/01 04:06:56;;;;;;;4.70;3.38;;;12.60;70.20;;;;;;5045493;28;20032;-86
2023/04/01 04:09:23;;;;;;;7.07;2.92;;;12.60;70.30;;;;;;5050574;28;20484;-85
2023/04/01 04:11:49;;;;;;;8.52;3.15;;;12.60;70.30;;;;;;5045531;28;20208;-86
2023/04/01 04:14:16;;;;;;;8.85;3.00;;;12.60;70.30;;;;;;5039639;28;20045;-86
2023/04/01 04:16:42;;;;;;;8.02;3.22;;;12.60;70.30;;;;;;5059233;28;20464;-84
2023/04/01 04:19:09;;;;;;;3.38;2.70;;;12.60;70.40;;;;;;5040083;28;20142;-86
2023/04/01 04:21:35;;;;;;;7.63;3.10;;;12.60;70.40;;;;;;5054699;28;20473;-86
2023/04/01 04:24:05;;;;;;;3.67;3.05;;;12.60;70.40;;;;;;5044963;28;20445;-86
2023/04/01 04:26:51;;;;;;;8.10;3.47;;;12.60;70.50;;;;;;5057353;28;20381;-86
2023/04/01 04:29:17;;;;;;;8.20;3.58;;;12.60;71.00;;;;;;5059112;28;20057;-86
2023/04/01 04:31:44;;;;;;;6.43;3.13;;;12.60;70.40;;;;;;5055800;28;20037;-85
2023/04/01 04:34:10;;;;;;;6.95;3.47;;;12.60;70.50;;;;;;5057621;28;20033;-86
2023/04/01 04:36:36;;;;;;;7.18;3.65;;;12.50;70.30;;;;;;5045865;28;20045;-86
2023/04/01 04:39:03;;;;;;;9.25;2.80;;;12.60;70.50;;;;;;5037215;28;20026;-84
2023/04/01 04:41:30;;;;;;;8.38;3.67;;;12.60;70.50;;;;;;5035666;28;20037;-87
2023/04/01 04:43:58;;;;;;;8.55;3.67;;;12.60;70.50;;;;;;5035519;28;20048;-80
2023/04/01 04:46:25;;;;;;;8.07;3.60;;;12.50;70.30;;;;;;5039956;28;20148;-82
2023/04/01 04:48:57;;;;;;;7.80;2.95;;;12.50;70.40;;;;;;5058316;28;20279;-80
2023/04/01 04:51:24;;;;;;;6.25;3.95;;;12.50;70.40;;;;;;5051134;28;20495;-85
2023/04/01 04:53:50;;;;;;;8.65;3.42;;;12.50;70.40;;;;;;5041443;28;20112;-81
2023/04/01 04:56:19;;;;;;;7.32;3.22;;;12.50;70.40;;;;;;5039974;28;20057;-83
2023/04/01 04:58:52;;;;;;;6.75;3.55;;;12.50;70.40;;;;;;5045378;28;20029;-84
2023/04/01 05:01:25;;;;;;;6.82;3.20;;;12.50;70.40;;;;;;5043061;28;20433;-83
2023/04/01 05:03:51;;;;;;;10.02;3.72;;;12.50;70.40;;;;;;5044747;28;20380;-84
2023/04/01 05:06:18;;;;;;;6.80;3.42;;;12.40;70.30;;;;;;5026513;28;20044;-91
2023/04/01 05:08:47;;;;;;;8.95;3.70;;;12.40;70.30;;;;;;5045159;28;20115;-81
2023/04/01 05:11:19;;;;;;;6.80;3.30;;;12.40;70.30;;;;;;5063660;28;20033;-85
2023/04/01 05:13:46;;;;;;;13.25;4.88;;;12.40;70.90;;;;;;5049303;28;20040;-85
2023/04/01 05:16:15;;;;;;;6.65;3.92;;;12.40;70.40;;;;;;5063423;28;20029;-85
2023/04/01 05:18:42;;;;;;;7.78;3.40;;;12.40;70.40;;;;;;5063648;28;20013;-86
2023/04/01 05:21:10;;;;;;;9.10;3.65;;;12.40;70.40;;;;;;5073458;28;20473;-86
2023/04/01 05:23:36;;;;;;;6.78;3.58;;;12.40;70.40;;;;;;5055448;28;20029;-86
2023/04/01 05:26:08;;;;;;;7.97;3.10;;;12.40;70.50;;;;;;5037200;28;20040;-87
2023/04/01 05:28:34;;;;;;;6.25;3.38;;;12.40;70.50;;;;;;5061744;28;20056;-90
2023/04/01 05:31:01;;;;;;;6.55;3.25;;;12.40;70.50;;;;;;5032117;28;20533;-89
2023/04/01 05:33:35;;;;;;;5.90;3.53;;;12.40;70.50;;;;;;5049674;28;20487;-90
2023/04/01 05:36:14;;;;;;;8.25;3.92;;;12.40;70.50;;;;;;5039510;28;20110;-89
2023/04/01 05:38:42;;;;;;;8.65;5.13;;;12.40;70.50;;;;;;5060695;28;20033;-88
2023/04/01 05:41:10;;;;;;;6.50;3.90;;;12.40;70.50;;;;;;5036572;28;20037;-89
2023/04/01 05:43:41;;;;;;;7.60;4.30;;;12.40;70.50;;;;;;5043398;28;20029;-89
2023/04/01 05:46:25;;;;;;;8.75;3.50;;;12.30;70.40;;;;;;5049115;28;20068;-89
2023/04/01 05:48:59;;;;;;;9.25;3.78;;;12.30;70.40;;;;;;5037945;28;20476;-90
2023/04/01 05:51:26;;;;;;;11.75;4.00;;;12.30;70.40;;;;;;5037189;28;20068;-89
2023/04/01 05:53:52;;;;;;;7.63;3.67;;;12.30;70.50;;;;;;5047027;28;20151;-87
2023/04/01 05:56:18;;;;;;;5.28;3.22;;;12.30;70.50;;;;;;5038059;28;20033;-85
2023/04/01 05:58:52;;;;;;;9.02;3.35;;;12.30;70.50;;;;;;5045492;28;20044;-89
2023/04/01 06:01:19;;;;;;;11.75;3.65;;;12.30;70.60;;;;;;5061522;28;20036;-93
2023/04/01 06:03:45;;;;;;;9.40;4.32;;;12.30;70.60;;;;;;5046985;28;20029;-86
2023/04/01 06:06:19;;;;;;;7.15;3.40;;;12.30;70.60;;;;;;5039704;28;20530;-87
2023/04/01 06:08:46;;;;;;;6.03;3.67;;;12.30;70.70;;;;;;5024760;28;20032;-84
2023/04/01 06:11:45;;;;;;;7.72;3.42;;;12.20;70.50;;;;;;5040018;28;20033;-85
2023/04/01 06:14:45;;;;;;;8.68;3.05;;;12.30;70.70;;;;;;5042184;28;20041;-85
2023/04/01 06:17:18;;;;;;;7.75;3.78;;;12.30;70.90;;;;;;5051436;28;20045;-90
2023/04/01 06:19:56;;;;;;;7.55;3.63;;;12.30;70.90;;;;;;5047876;28;20108;-88
2023/04/01 06:22:22;;;;;;;8.82;3.45;;;12.30;71.00;;;;;;5036894;28;20033;-86
2023/04/01 06:25:14;;;;;;;6.97;3.50;;;12.30;70.90;;;;;;5040370;28;20340;-83
2023/04/01 06:28:16;;;;;;;9.70;3.53;;;12.40;71.20;;;;;;5060352;28;20032;-86
2023/04/01 06:31:00;;;;;;;10.38;4.20;;;12.40;71.20;;;;;;5037250;28;20067;-79
2023/04/01 06:34:02;;;;;;;12.40;3.92;;;12.40;71.20;;;;;;5044785;28;20500;-85
2023/04/01 06:36:52;;;;;;;9.85;4.55;;;12.50;72.20;;;;;;5041581;28;20056;-83
2023/04/01 06:39:49;;;;;;;9.23;4.45;;;12.70;72.70;;;;;;5039340;28;20033;-84
2023/04/01 06:42:45;;;;;;;9.65;4.68;;;12.90;72.80;;;;;;5025737;28;20245;-84
2023/04/01 06:45:46;;;;;;;17.80;5.63;;;13.00;72.70;;;;;;5054489;28;20055;-84
2023/04/01 06:48:57;;;;;;;9.20;4.43;;;13.00;72.70;;;;;;5055491;28;20454;-83
2023/04/01 06:51:48;;;;;;;10.70;4.28;;;13.00;72.70;;;;;;5041550;28;20033;-82
2023/04/01 06:54:44;;;;;;;9.50;4.28;;;13.00;72.60;;;;;;5045610;28;20108;-82
2023/04/01 06:57:41;;;;;;;13.63;5.95;;;13.00;72.80;;;;;;5046354;28;20041;-85
2023/04/01 07:00:22;;;;;;;11.15;4.03;;;13.10;73.10;;;;;;5048379;28;20036;-84
2023/04/01 07:02:58;;;;;;;7.82;3.92;;;13.00;73.00;;;;;;5050243;28;20116;-85
2023/04/01 07:05:30;;;;;;;8.52;4.38;;;13.10;73.20;;;;;;5047606;28;20574;-85
2023/04/01 07:08:03;;;;;;;8.02;4.00;;;13.10;73.30;;;;;;5047367;28;20033;-84
2023/04/01 07:10:54;;;;;;;9.05;4.22;;;13.10;73.40;;;;;;5047654;28;20029;-84
2023/04/01 07:13:50;;;;;;;11.80;4.72;;;13.10;73.50;;;;;;5045277;28;20295;-85
2023/04/01 07:16:24;;;;;;;14.10;4.55;;;13.10;73.50;;;;;;5045619;28;20033;-84
2023/04/01 07:18:57;;;;;;;12.60;4.93;;;13.20;73.70;;;;;;5030307;28;20037;-84
2023/04/01 07:21:45;;;;;;;10.82;4.85;;;13.20;73.70;;;;;;5025534;28;20067;-85
2023/04/01 07:24:44;;;;;;;7.95;4.50;;;13.20;74.30;;;;;;5044188;28;20041;-85
2023/04/01 07:27:13;;;;;;;8.35;4.25;;;13.30;73.90;;;;;;5037129;28;20036;-84
2023/04/01 07:29:42;;;;;;;9.23;4.70;;;13.30;73.70;;;;;;5048110;28;20384;-84
2023/04/01 07:32:42;;;;;;;8.60;4.68;;;13.40;73.90;;;;;;5046608;28;20451;-86
2023/04/01 07:35:23;;;;;;;14.07;4.82;;;13.40;73.90;;;;;;5021302;28;20094;-83
2023/04/01 07:38:27;;;;;;;8.18;5.00;;;13.50;74.00;;;;;;5055481;28;20179;-84
2023/04/01 07:41:00;;;;;;;11.82;5.38;;;13.50;74.10;;;;;;5020710;28;20083;-84
2023/04/01 07:43:27;;;;;;;9.60;4.13;;;13.50;73.90;;;;;;5046101;28;20044;-85
2023/04/01 07:46:30;;;;;;;10.25;4.85;;;13.60;74.00;;;;;;5046220;28;20025;-86
2023/04/01 07:49:31;;;;;;;9.10;4.43;;;13.60;74.00;;;;;;5045534;28;20041;-85
2023/04/01 07:52:23;;;;;;;7.43;3.67;;;13.70;74.10;;;;;;5046622;28;20504;-90
2023/04/01 07:55:10;;;;;;;9.45;4.28;;;13.80;74.60;;;;;;5050048;28;20036;-90
2023/04/01 07:58:17;;;;;;;7.13;3.78;;;13.90;74.40;;;;;;5062082;28;20064;-90
2023/04/01 08:01:06;;;;;;;5.40;3.10;;;14.20;75.30;;;;;;5049301;28;20168;-93
2023/04/01 08:04:21;;;;;;;9.52;3.92;;;14.60;75.60;;;;;;5051084;28;20063;-89
2023/04/01 08:07:29;;;;;;;4.78;2.85;;;15.00;75.60;;;;;;4974752;28;20489;-81
2023/04/01 08:10:31;;;;;;;9.15;3.13;;;15.50;75.60;;;;;;4965707;28;20046;-78
2023/04/01 08:13:50;;;;;;;6.78;3.00;;;15.80;75.00;;;;;;4966989;28;20089;-80
2023/04/01 08:16:53;;;;;;;4.30;2.55;;;16.20;75.20;;;;;;5057038;28;20064;-79
2023/04/01 08:19:51;;;;;;;11.98;2.60;;;16.50;75.00;;;;;;5047325;28;20028;-81
2023/04/01 08:22:36;;;;;;;3.70;2.28;;;16.80;75.20;;;;;;5042908;28;20079;-80
2023/04/01 08:25:16;;;;;;;5.60;2.13;;;16.90;74.90;;;;;;5040529;28;20113;-79
2023/04/01 08:27:51;;;;;;;4.40;2.25;;;17.20;75.00;;;;;;5041267;28;20031;-81
2023/04/01 08:30:35;;;;;;;6.20;2.67;;;17.30;74.90;;;;;;5041576;28;20037;-80
2023/04/01 08:33:10;;;;;;;5.93;2.40;;;17.40;74.70;;;;;;5042883;28;20426;-79
2023/04/01 08:36:07;;;;;;;5.50;2.03;;;17.50;74.40;;;;;;5043992;28;20166;-79
2023/04/01 08:38:57;;;;;;;4.57;2.17;;;17.60;74.30;;;;;;5043771;28;20274;-80
2023/04/01 08:41:45;;;;;;;2.95;1.60;;;17.80;74.30;;;;;;5058106;28;20083;-79
2023/04/01 08:44:59;;;;;;;2.45;1.63;;;17.80;74.10;;;;;;5047512;28;20564;-84
2023/04/01 08:47:56;;;;;;;4.03;1.95;;;17.90;74.00;;;;;;5049874;28;20033;-81
2023/04/01 08:50:45;;;;;;;3.88;1.42;;;18.00;73.80;;;;;;5044399;28;20036;-80
2023/04/01 08:53:22;;;;;;;3.78;1.73;;;18.00;73.60;;;;;;5060759;28;20576;-80
2023/04/01 08:56:08;;;;;;;3.20;1.88;;;18.10;73.50;;;;;;5043014;28;20044;-81
2023/04/01 08:58:47;;;;;;;1.98;1.17;;;18.20;73.30;;;;;;5028860;28;20036;-80
2023/04/01 09:01:36;;;;;;;3.28;1.55;;;18.30;73.10;;;;;;5046179;28;20046;-79
2023/04/01 09:04:27;;;;;;;2.38;1.23;;;18.40;73.00;;;;;;5060450;28;20511;-80
2023/04/01 09:07:09;;;;;;;1.77;1.08;;;18.50;72.60;;;;;;5056366;28;20033;-80
2023/04/01 09:09:56;;;;;;;2.75;1.15;;;18.50;72.20;;;;;;5057077;28;20103;-80
2023/04/01 09:12:31;;;;;;;2.78;0.90;;;18.60;72.10;;;;;;5045077;28;20032;-80
2023/04/01 09:15:21;;;;;;;2.47;0.95;;;18.60;72.00;;;;;;5060933;28;20449;-78
2023/04/01 09:18:00;;;;;;;4.40;1.50;;;18.60;71.70;;;;;;5045907;28;20095;-82
2023/04/01 09:21:04;;;;;;;3.03;0.80;;;18.60;71.70;;;;;;5063464;28;20471;-83
2023/04/01 09:23:52;;;;;;;4.38;1.10;;;18.60;71.60;;;;;;4997376;28;20036;-83
2023/04/01 09:26:34;;;;;;;2.28;1.00;;;18.70;71.80;;;;;;5027947;28;20044;-82
2023/04/01 09:29:21;;;;;;;2.40;1.20;;;18.70;71.60;;;;;;5060874;28;20032;-82
2023/04/01 09:32:09;;;;;;;2.22;0.80;;;18.80;71.50;;;;;;5045738;28;20040;-85
2023/04/01 09:35:14;;;;;;;2.25;1.10;;;18.80;71.20;;;;;;5054571;28;20052;-86
2023/04/01 09:37:49;;;;;;;1.75;0.90;;;18.90;71.20;;;;;;5037358;28;20116;-87
2023/04/01 09:40:26;;;;;;;1.30;0.70;;;18.90;70.90;;;;;;5021410;28;20489;-86
2023/04/01 09:43:04;;;;;;;1.83;0.70;;;18.80;70.60;;;;;;5021784;28;20029;-85
2023/04/01 09:45:53;;;;;;;2.17;1.05;;;18.80;70.60;;;;;;5024585;28;20465;-85
2023/04/01 09:48:31;;;;;;;2.03;0.95;;;18.70;70.30;;;;;;5021919;28;20543;-85
2023/04/01 09:51:28;;;;;;;3.38;1.00;;;18.60;70.20;;;;;;5026087;28;20037;-84
2023/04/01 09:54:23;;;;;;;2.97;0.90;;;18.50;70.10;;;;;;5023394;28;20141;-83
2023/04/01 09:56:49;;;;;;;4.05;1.10;;;18.40;70.10;;;;;;5020329;28;20222;-85
2023/04/01 09:59:34;;;;;;;3.42;1.13;;;18.40;70.30;;;;;;5024888;28;20060;-82
2023/04/01 10:02:47;;;;;;;1.40;0.88;;;18.40;70.20;;;;;;5018295;28;20347;-84
2023/04/01 10:06:02;;;;;;;2.28;1.30;;;18.40;70.10;;;;;;5013959;28;20037;-84
2023/04/01 10:08:51;;;;;;;1.55;0.80;;;18.40;70.00;;;;;;5022355;28;20037;-80
2023/04/01 10:11:39;;;;;;;2.92;1.10;;;18.30;69.90;;;;;;5019610;28;20063;-79
2023/04/01 10:14:50;;;;;;;1.20;0.65;;;18.30;69.90;;;;;;5021686;28;20038;-81
2023/04/01 10:17:51;;;;;;;1.52;0.75;;;18.30;69.60;;;;;;5000160;28;20049;-80
2023/04/01 10:20:20;;;;;;;2.83;0.85;;;18.30;69.70;;;;;;5021580;28;20095;-81
2023/04/01 10:23:04;;;;;;;1.10;0.80;;;18.30;69.80;;;;;;5017709;28;20064;-80
2023/04/01 10:25:59;;;;;;;2.65;0.60;;;18.30;69.70;;;;;;5039411;28;20067;-80
2023/04/01 10:28:44;;;;;;;0.80;0.50;;;18.20;69.50;;;;;;5058058;28;20044;-80
2023/04/01 10:32:12;;;;;;;1.77;0.70;;;18.20;69.60;;;;;;5051190;28;20022;-84
2023/04/01 10:35:01;;;;;;;1.83;0.95;;;18.10;69.50;;;;;;5064471;28;20117;-82
2023/04/01 10:38:02;;;;;;;2.55;1.00;;;18.10;69.70;;;;;;5074454;28;20033;-82
2023/04/01 10:40:46;;;;;;;1.25;0.73;;;18.10;69.80;;;;;;5064203;28;20055;-84
2023/04/01 10:43:35;;;;;;;0.85;0.50;;;18.00;69.70;;;;;;5071828;28;20408;-83
2023/04/01 10:46:40;;;;;;;1.58;0.70;;;17.90;69.60;;;;;;5055235;28;20067;-83
2023/04/01 10:49:35;;;;;;;2.30;0.80;;;17.90;69.70;;;;;;5046539;28;20134;-81
2023/04/01 10:52:35;;;;;;;6.45;0.85;;;18.00;69.90;;;;;;5042339;28;20028;-83
2023/04/01 10:56:04;;;;;;;1.40;0.80;;;18.20;70.00;;;;;;5053622;28;20119;-85
2023/04/01 10:59:11;;;;;;;3.20;0.70;;;18.50;70.10;;;;;;5058536;28;20040;-84
2023/04/01 11:02:15;;;;;;;5.15;1.08;;;18.70;69.90;;;;;;5066927;28;20121;-84
2023/04/01 11:05:15;;;;;;;4.97;1.45;;;18.90;69.70;;;;;;5066571;28;20039;-85
2023/04/01 11:08:25;;;;;;;1.83;1.40;;;19.10;69.50;;;;;;5053324;28;20040;-86
2023/04/01 11:11:35;;;;;;;2.00;1.60;;;19.20;69.10;;;;;;5066429;28;20295;-84
2023/04/01 11:14:09;;;;;;;1.80;1.50;;;19.30;69.10;;;;;;5048389;28;20044;-84
2023/04/01 11:17:00;;;;;;;3.28;2.05;;;19.50;69.00;;;;;;5033671;28;20036;-85
2023/04/01 11:19:46;;;;;;;2.40;1.58;;;19.60;68.50;;;;;;5037078;28;20338;-87
2023/04/01 11:22:20;;;;;;;2.45;2.25;;;19.80;68.30;;;;;;5054424;28;20032;-87
2023/04/01 11:25:10;;;;;;;4.47;3.17;;;20.00;68.20;;;;;;5053042;28;20115;-84
2023/04/01 11:28:09;;;;;;;3.70;3.08;;;20.10;68.00;;;;;;5078660;28;20036;-85
2023/04/01 11:30:58;;;;;;;3.67;2.65;;;20.30;67.40;;;;;;5064379;28;20090;-95
2023/04/01 11:33:40;;;;;;;3.47;3.10;;;20.50;67.60;;;;;;5071569;28;20044;-93
2023/04/01 11:36:35;;;;;;;3.30;2.63;;;20.60;67.20;;;;;;5066769;28;20075;-89
2023/04/01 11:39:23;;;;;;;3.40;2.67;;;20.80;67.20;;;;;;5052568;28;20074;-87
2023/04/01 11:42:17;;;;;;;5.78;3.17;;;21.00;67.10;;;;;;5065231;28;20575;-83
2023/04/01 11:45:15;;;;;;;4.13;3.00;;;21.20;67.00;;;;;;5066700;28;20028;-86
2023/04/01 11:47:49;;;;;;;5.65;2.85;;;21.40;67.00;;;;;;5064603;28;20598;-85
2023/04/01 11:50:34;;;;;;;6.97;3.75;;;21.40;66.90;;;;;;5059182;28;20016;-87
2023/04/01 11:53:03;;;;;;;3.88;2.42;;;21.50;66.90;;;;;;5032162;28;20047;-85
2023/04/01 11:55:55;;;;;;;5.25;2.63;;;21.70;67.00;;;;;;5066841;28;20055;-86
2023/04/01 11:58:33;;;;;;;3.25;1.80;;;21.80;66.40;;;;;;5063887;28;20089;-80
2023/04/01 12:01:30;;;;;;;3.97;3.15;;;21.90;66.20;;;;;;5044689;28;20028;-82
2023/04/01 12:04:21;;;;;;;2.47;2.03;;;22.00;66.00;;;;;;5043551;28;20521;-80
2023/04/01 12:07:05;;;;;;;2.40;2.20;;;21.90;65.90;;;;;;5062999;28;20035;-83
2023/04/01 12:10:18;;;;;;;3.97;3.05;;;21.90;65.90;;;;;;5061066;28;20523;-84
2023/04/01 12:12:59;;;;;;;2.78;2.55;;;21.90;65.40;;;;;;5022149;28;20500;-81
2023/04/01 12:15:53;;;;;;;4.50;3.10;;;21.90;65.50;;;;;;5004385;28;20399;-83
2023/04/01 12:18:42;;;;;;;5.18;3.35;;;21.80;65.10;;;;;;5047183;28;20131;-81
2023/04/01 12:21:22;;;;;;;4.60;4.20;;;21.70;65.00;;;;;;5043618;28;20116;-82
2023/04/01 12:24:29;;;;;;;4.72;4.32;;;21.60;64.70;;;;;;5046298;28;20125;-82
2023/04/01 12:27:01;;;;;;;5.38;4.88;;;21.40;64.20;;;;;;5039585;28;20074;-83
2023/04/01 12:29:37;;;;;;;5.20;4.70;;;21.10;64.20;;;;;;5034891;28;20024;-82
2023/04/01 12:32:06;;;;;;;5.78;5.32;;;20.90;64.00;;;;;;5063596;28;20047;-82
2023/04/01 12:34:52;;;;;;;6.75;6.05;;;20.70;64.10;;;;;;5064377;28;20384;-82
2023/04/01 12:37:30;;;;;;;6.30;5.68;;;20.50;63.30;;;;;;5055767;28;20048;-83
2023/04/01 12:40:01;;;;;;;6.60;5.97;;;20.40;63.40;;;;;;5052815;28;20419;-82
2023/04/01 12:42:46;;;;;;;7.25;6.65;;;20.30;63.50;;;;;;5046806;28;20032;-83
2023/04/01 12:45:27;;;;;;;7.75;6.95;;;20.20;63.10;;;;;;5046825;28;20032;-80
2023/04/01 12:48:27;;;;;;;6.65;6.05;;;20.30;63.10;;;;;;5061523;28;20033;-79
2023/04/01 12:51:11;;;;;;;6.97;6.38;;;20.50;62.90;;;;;;5053095;28;20020;-81
2023/04/01 12:53:46;;;;;;;7.43;6.82;;;20.70;62.80;;;;;;5045420;28;20037;-82
2023/04/01 12:56:37;;;;;;;7.20;6.57;;;20.80;62.70;;;;;;5024341;28;20064;-83
2023/04/01 12:59:15;;;;;;;6.57;6.07;;;21.00;62.60;;;;;;5045464;28;20174;-81
2023/04/01 13:01:53;;;;;;;6.70;6.15;;;21.20;62.30;;;;;;5046031;28;20549;-81
2023/04/01 13:04:38;;;;;;;7.22;6.63;;;21.30;62.10;;;;;;5053977;28;21094;-80
2023/04/01 13:07:25;;;;;;;5.95;5.45;;;21.40;62.10;;;;;;5063084;28;20036;-79
2023/04/01 13:10:14;;;;;;;6.07;5.57;;;21.40;62.10;;;;;;5061744;28;20558;-80
2023/04/01 13:12:48;;;;;;;6.70;6.10;;;21.40;61.70;;;;;;5055907;28;20084;-78
2023/04/01 13:15:33;;;;;;;6.15;5.50;;;21.50;61.90;;;;;;5045746;28;20040;-80
2023/04/01 13:18:04;;;;;;;7.03;5.82;;;21.40;61.50;;;;;;5050685;28;20056;-80
2023/04/01 13:20:54;;;;;;;5.35;4.85;;;21.40;61.20;;;;;;5045056;28;20040;-78
2023/04/01 13:23:47;;;;;;;4.57;4.18;;;21.40;60.80;;;;;;5060680;28;20039;-79
2023/04/01 13:26:18;;;;;;;;;;;21.40;60.60;;;;;;5064828;28;20502;-80
2023/04/01 13:28:58;;;;;;;4.50;4.20;;;21.50;61.20;;;;;;5061276;28;19912;-81
2023/04/01 13:31:59;;;;;;;4.20;3.90;;;21.60;61.20;;;;;;5061465;28;20078;-81
2023/04/01 13:34:51;;;;;;;4.00;3.70;;;21.70;61.30;;;;;;5035755;28;20063;-81
2023/04/01 13:37:41;;;;;;;3.83;3.47;;;21.80;60.50;;;;;;5060811;28;20098;-82
2023/04/01 13:40:12;;;;;;;3.90;3.25;;;21.90;60.40;;;;;;5060794;28;20102;-83
2023/04/01 13:42:46;;;;;;;3.80;3.50;;;22.00;60.30;;;;;;5060524;28;20037;-83
2023/04/01 13:45:18;;;;;;;4.13;3.70;;;22.10;60.00;;;;;;5042401;28;20056;-82
2023/04/01 13:48:09;;;;;;;4.15;3.83;;;22.20;59.50;;;;;;5041419;28;20029;-86
2023/04/01 13:51:16;;;;;;;3.22;2.75;;;22.30;58.80;;;;;;5062259;28;20040;-82